sensor_id;sensor_type;location;lat;lon;timestamp;pressure;altitude;pressure_sealevel;temperature;humidity
69772;BME280;57046;45.988;18.664;2022-09-21T00:00:29;101107.31;;;9.30;100.00
69772;BME280;57046;45.988;18.664;2022-09-21T00:02:56;101109.97;;;9.35;100.00
69772;BME280;57046;45.988;18.664;2022-09-21T00:05:22;101109.81;;;9.26;100.00
69772;BME280;57046;45.988;18.664;2022-09-21T00:07:47;101112.69;;;9.16;100.00
69772;BME280;57046;45.988;18.664;2022-09-21T00:10:13;101104.31;;;9.17;100.00
69772;BME280;57046;45.988;18.664;2022-09-21T00:12:39;101113.97;;;9.18;100.00
69772;BME280;57046;45.988;18.664;2022-09-21T00:15:06;101104.75;;;9.06;100.00
69772;BME280;57046;45.988;18.664;2022-09-21T00:17:32;101101.34;;;9.00;100.00
69772;BME280;57046;45.988;18.664;2022-09-21T00:19:58;101107.16;;;9.07;100.00
69772;BME280;57046;45.988;18.664;2022-09-21T00:22:23;101097.03;;;8.99;100.00
69772;BME280;57046;45.988;18.664;2022-09-21T00:24:48;101104.53;;;9.02;100.00
69772;BME280;57046;45.988;18.664;2022-09-21T00:27:14;101101.63;;;8.99;100.00
69772;BME280;57046;45.988;18.664;2022-09-21T00:29:39;101100.53;;;9.00;100.00
69772;BME280;57046;45.988;18.664;2022-09-21T00:32:04;101097.56;;;9.01;100.00
69772;BME280;57046;45.988;18.664;2022-09-21T00:34:29;101093.97;;;9.06;100.00
69772;BME280;57046;45.988;18.664;2022-09-21T00:36:55;101096.44;;;9.02;100.00
69772;BME280;57046;45.988;18.664;2022-09-21T00:39:20;101094.28;;;9.04;100.00
69772;BME280;57046;45.988;18.664;2022-09-21T00:41:45;101089.81;;;8.95;100.00
69772;BME280;57046;45.988;18.664;2022-09-21T00:46:43;101086.50;;;8.84;100.00
69772;BME280;57046;45.988;18.664;2022-09-21T00:49:09;101092.97;;;8.83;100.00
69772;BME280;57046;45.988;18.664;2022-09-21T00:51:35;101090.28;;;8.83;100.00
69772;BME280;57046;45.988;18.664;2022-09-21T00:54:05;101085.97;;;8.82;100.00
69772;BME280;57046;45.988;18.664;2022-09-21T00:56:33;101080.91;;;8.81;100.00
69772;BME280;57046;45.988;18.664;2022-09-21T00:58:59;101088.75;;;8.77;100.00
69772;BME280;57046;45.988;18.664;2022-09-21T01:01:25;101089.63;;;8.73;100.00
69772;BME280;57046;45.988;18.664;2022-09-21T01:03:51;101087.94;;;8.77;100.00
69772;BME280;57046;45.988;18.664;2022-09-21T01:06:19;101087.44;;;8.75;100.00
69772;BME280;57046;45.988;18.664;2022-09-21T01:08:46;101081.25;;;8.74;100.00
69772;BME280;57046;45.988;18.664;2022-09-21T01:17:15;101086.56;;;8.79;100.00
69772;BME280;57046;45.988;18.664;2022-09-21T01:19:57;101078.97;;;8.81;100.00
69772;BME280;57046;45.988;18.664;2022-09-21T01:30:56;101090.28;;;8.64;100.00
69772;BME280;57046;45.988;18.664;2022-09-21T01:33:34;101090.72;;;8.53;100.00
69772;BME280;57046;45.988;18.664;2022-09-21T01:36:06;101098.00;;;8.52;100.00
69772;BME280;57046;45.988;18.664;2022-09-21T01:38:42;101098.00;;;8.52;100.00
69772;BME280;57046;45.988;18.664;2022-09-21T01:41:10;101092.09;;;8.50;100.00
69772;BME280;57046;45.988;18.664;2022-09-21T01:43:44;101095.56;;;8.51;100.00
69772;BME280;57046;45.988;18.664;2022-09-21T01:46:15;101096.31;;;8.56;100.00
69772;BME280;57046;45.988;18.664;2022-09-21T01:48:45;101086.56;;;8.60;100.00
69772;BME280;57046;45.988;18.664;2022-09-21T01:51:14;101092.38;;;8.67;100.00
69772;BME280;57046;45.988;18.664;2022-09-21T01:53:45;101095.81;;;8.73;100.00
69772;BME280;57046;45.988;18.664;2022-09-21T01:56:19;101082.03;;;8.75;100.00
69772;BME280;57046;45.988;18.664;2022-09-21T01:59:19;101091.59;;;8.86;100.00
69772;BME280;57046;45.988;18.664;2022-09-21T02:01:51;101084.31;;;8.86;100.00
69772;BME280;57046;45.988;18.664;2022-09-21T02:04:17;101081.13;;;8.84;100.00
69772;BME280;57046;45.988;18.664;2022-09-21T02:06:45;101091.88;;;8.84;100.00
69772;BME280;57046;45.988;18.664;2022-09-21T02:09:11;101090.56;;;8.82;100.00
69772;BME280;57046;45.988;18.664;2022-09-21T02:11:37;101093.63;;;8.75;100.00
69772;BME280;57046;45.988;18.664;2022-09-21T02:14:03;101100.69;;;8.71;100.00
69772;BME280;57046;45.988;18.664;2022-09-21T02:19:48;101094.88;;;8.64;100.00
69772;BME280;57046;45.988;18.664;2022-09-21T02:22:40;101099.38;;;8.68;100.00
69772;BME280;57046;45.988;18.664;2022-09-21T02:25:17;101097.00;;;8.67;100.00
69772;BME280;57046;45.988;18.664;2022-09-21T02:28:06;101095.00;;;8.73;100.00
69772;BME280;57046;45.988;18.664;2022-09-21T02:30:34;101099.59;;;8.72;100.00
69772;BME280;57046;45.988;18.664;2022-09-21T02:33:10;101093.72;;;8.70;100.00
69772;BME280;57046;45.988;18.664;2022-09-21T02:35:48;101097.00;;;8.67;100.00
69772;BME280;57046;45.988;18.664;2022-09-21T02:38:45;101102.97;;;8.64;100.00
69772;BME280;57046;45.988;18.664;2022-09-21T02:41:25;101097.56;;;8.64;100.00
69772;BME280;57046;45.988;18.664;2022-09-21T02:44:03;101096.81;;;8.58;100.00
69772;BME280;57046;45.988;18.664;2022-09-21T02:46:36;101103.28;;;8.57;100.00
69772;BME280;57046;45.988;18.664;2022-09-21T02:49:09;101099.81;;;8.57;100.00
69772;BME280;57046;45.988;18.664;2022-09-21T02:51:44;101097.19;;;8.52;100.00
69772;BME280;57046;45.988;18.664;2022-09-21T02:54:13;101099.88;;;8.52;100.00
69772;BME280;57046;45.988;18.664;2022-09-21T02:56:41;101092.88;;;8.51;100.00
69772;BME280;57046;45.988;18.664;2022-09-21T02:59:07;101105.25;;;8.52;100.00
69772;BME280;57046;45.988;18.664;2022-09-21T03:01:33;101095.78;;;8.54;100.00
69772;BME280;57046;45.988;18.664;2022-09-21T03:04:00;101098.94;;;8.61;100.00
69772;BME280;57046;45.988;18.664;2022-09-21T03:06:25;101099.75;;;8.62;100.00
69772;BME280;57046;45.988;18.664;2022-09-21T03:08:51;101100.91;;;8.56;100.00
69772;BME280;57046;45.988;18.664;2022-09-21T03:11:17;101105.75;;;8.54;100.00
69772;BME280;57046;45.988;18.664;2022-09-21T03:13:43;101103.97;;;8.49;100.00
69772;BME280;57046;45.988;18.664;2022-09-21T03:16:08;101105.84;;;8.49;100.00
69772;BME280;57046;45.988;18.664;2022-09-21T03:18:34;101111.22;;;8.49;100.00
69772;BME280;57046;45.988;18.664;2022-09-21T03:21:00;101113.34;;;8.52;100.00
69772;BME280;57046;45.988;18.664;2022-09-21T03:23:25;101116.03;;;8.52;100.00
69772;BME280;57046;45.988;18.664;2022-09-21T03:25:51;101119.81;;;8.51;100.00
69772;BME280;57046;45.988;18.664;2022-09-21T03:28:17;101123.25;;;8.56;100.00
69772;BME280;57046;45.988;18.664;2022-09-21T03:30:43;101121.06;;;8.58;100.00
69772;BME280;57046;45.988;18.664;2022-09-21T03:33:09;101121.00;;;8.63;100.00
69772;BME280;57046;45.988;18.664;2022-09-21T03:35:34;101127.47;;;8.62;100.00
69772;BME280;57046;45.988;18.664;2022-09-21T03:38:00;101134.97;;;8.65;100.00
69772;BME280;57046;45.988;18.664;2022-09-21T03:40:26;101127.94;;;8.69;100.00
69772;BME280;57046;45.988;18.664;2022-09-21T03:42:53;101131.66;;;8.74;100.00
69772;BME280;57046;45.988;18.664;2022-09-21T03:45:19;101136.16;;;8.78;100.00
69772;BME280;57046;45.988;18.664;2022-09-21T03:47:45;101129.97;;;8.78;100.00
69772;BME280;57046;45.988;18.664;2022-09-21T03:50:10;101136.69;;;8.80;100.00
69772;BME280;57046;45.988;18.664;2022-09-21T03:52:36;101134.25;;;8.79;100.00
69772;BME280;57046;45.988;18.664;2022-09-21T03:55:02;101132.97;;;8.76;100.00
69772;BME280;57046;45.988;18.664;2022-09-21T03:57:27;101128.75;;;8.70;100.00
69772;BME280;57046;45.988;18.664;2022-09-21T03:59:53;101132.28;;;8.65;100.00
69772;BME280;57046;45.988;18.664;2022-09-21T04:02:18;101143.06;;;8.65;100.00
69772;BME280;57046;45.988;18.664;2022-09-21T04:04:43;101133.94;;;8.61;100.00
69772;BME280;57046;45.988;18.664;2022-09-21T04:07:09;101137.44;;;8.62;100.00
69772;BME280;57046;45.988;18.664;2022-09-21T04:09:34;101144.47;;;8.63;100.00
69772;BME280;57046;45.988;18.664;2022-09-21T04:11:59;101134.84;;;8.57;100.00
69772;BME280;57046;45.988;18.664;2022-09-21T04:14:25;101137.81;;;8.55;100.00
69772;BME280;57046;45.988;18.664;2022-09-21T04:16:50;101143.69;;;8.57;100.00
69772;BME280;57046;45.988;18.664;2022-09-21T04:19:16;101148.59;;;8.55;100.00
69772;BME280;57046;45.988;18.664;2022-09-21T04:21:41;101158.28;;;8.56;100.00
69772;BME280;57046;45.988;18.664;2022-09-21T04:24:06;101155.34;;;8.53;100.00
69772;BME280;57046;45.988;18.664;2022-09-21T04:26:33;101158.84;;;8.53;100.00
69772;BME280;57046;45.988;18.664;2022-09-21T04:28:59;101161.56;;;8.53;100.00
69772;BME280;57046;45.988;18.664;2022-09-21T04:31:27;101159.59;;;8.59;100.00
69772;BME280;57046;45.988;18.664;2022-09-21T04:33:55;101167.31;;;8.65;100.00
69772;BME280;57046;45.988;18.664;2022-09-21T04:36:21;101166.47;;;8.70;100.00
69772;BME280;57046;45.988;18.664;2022-09-21T04:38:48;101165.78;;;8.78;100.00
69772;BME280;57046;45.988;18.664;2022-09-21T04:41:14;101167.41;;;8.79;100.00
69772;BME280;57046;45.988;18.664;2022-09-21T04:43:44;101176.75;;;8.87;100.00
69772;BME280;57046;45.988;18.664;2022-09-21T04:46:13;101167.91;;;9.00;100.00
69772;BME280;57046;45.988;18.664;2022-09-21T04:48:39;101171.34;;;9.05;100.00
69772;BME280;57046;45.988;18.664;2022-09-21T04:51:05;101165.59;;;8.93;100.00
69772;BME280;57046;45.988;18.664;2022-09-21T04:53:30;101181.69;;;8.98;100.00
69772;BME280;57046;45.988;18.664;2022-09-21T04:55:56;101179.28;;;8.97;100.00
69772;BME280;57046;45.988;18.664;2022-09-21T04:58:22;101188.91;;;9.03;100.00
69772;BME280;57046;45.988;18.664;2022-09-21T05:00:51;101180.69;;;8.94;100.00
69772;BME280;57046;45.988;18.664;2022-09-21T05:03:20;101187.28;;;9.02;100.00
69772;BME280;57046;45.988;18.664;2022-09-21T05:05:48;101183.22;;;9.04;100.00
69772;BME280;57046;45.988;18.664;2022-09-21T05:08:13;101192.47;;;9.17;100.00
69772;BME280;57046;45.988;18.664;2022-09-21T05:10:39;101187.81;;;9.23;100.00
69772;BME280;57046;45.988;18.664;2022-09-21T05:13:04;101196.31;;;9.30;100.00
69772;BME280;57046;45.988;18.664;2022-09-21T05:15:29;101188.75;;;9.32;100.00
69772;BME280;57046;45.988;18.664;2022-09-21T05:17:55;101204.03;;;9.36;100.00
69772;BME280;57046;45.988;18.664;2022-09-21T05:20:20;101202.59;;;9.44;100.00
69772;BME280;57046;45.988;18.664;2022-09-21T05:22:45;101200.53;;;9.54;100.00
69772;BME280;57046;45.988;18.664;2022-09-21T05:25:11;101208.03;;;9.57;100.00
69772;BME280;57046;45.988;18.664;2022-09-21T05:27:36;101204.25;;;9.58;100.00
69772;BME280;57046;45.988;18.664;2022-09-21T05:30:02;101205.56;;;9.61;100.00
69772;BME280;57046;45.988;18.664;2022-09-21T05:35:21;101207.88;;;9.67;100.00
69772;BME280;57046;45.988;18.664;2022-09-21T05:38:12;101214.50;;;9.75;100.00
69772;BME280;57046;45.988;18.664;2022-09-21T05:40:41;101215.91;;;9.73;100.00
69772;BME280;57046;45.988;18.664;2022-09-21T05:43:07;101213.09;;;9.78;100.00
69772;BME280;57046;45.988;18.664;2022-09-21T05:45:33;101210.72;;;9.76;100.00
69772;BME280;57046;45.988;18.664;2022-09-21T05:55:57;101215.88;;;10.05;100.00
69772;BME280;57046;45.988;18.664;2022-09-21T05:58:47;101211.28;;;10.05;100.00
69772;BME280;57046;45.988;18.664;2022-09-21T06:04:01;101215.91;;;10.18;100.00
69772;BME280;57046;45.988;18.664;2022-09-21T06:06:26;101208.81;;;10.23;100.00
69772;BME280;57046;45.988;18.664;2022-09-21T06:08:52;101219.03;;;10.26;100.00
69772;BME280;57046;45.988;18.664;2022-09-21T06:11:18;101219.31;;;10.24;100.00
69772;BME280;57046;45.988;18.664;2022-09-21T06:13:43;101213.63;;;10.26;100.00
69772;BME280;57046;45.988;18.664;2022-09-21T06:16:09;101225.66;;;10.33;100.00
69772;BME280;57046;45.988;18.664;2022-09-21T06:18:38;101229.56;;;10.41;100.00
69772;BME280;57046;45.988;18.664;2022-09-21T06:21:04;101233.44;;;10.48;100.00
69772;BME280;57046;45.988;18.664;2022-09-21T06:23:30;101226.47;;;10.61;100.00
69772;BME280;57046;45.988;18.664;2022-09-21T06:25:55;101225.13;;;10.72;98.48
69772;BME280;57046;45.988;18.664;2022-09-21T06:28:20;101226.13;;;10.76;97.71
69772;BME280;57046;45.988;18.664;2022-09-21T06:30:53;101226.44;;;10.88;97.94
69772;BME280;57046;45.988;18.664;2022-09-21T06:33:18;101226.50;;;10.97;97.20
69772;BME280;57046;45.988;18.664;2022-09-21T06:35:53;101229.81;;;11.07;98.16
69772;BME280;57046;45.988;18.664;2022-09-21T06:38:20;101235.06;;;11.26;97.48
69772;BME280;57046;45.988;18.664;2022-09-21T06:40:45;101225.75;;;11.32;95.79
69772;BME280;57046;45.988;18.664;2022-09-21T06:43:10;101232.44;;;11.35;94.90
69772;BME280;57046;45.988;18.664;2022-09-21T06:45:36;101234.97;;;11.53;95.10
69772;BME280;57046;45.988;18.664;2022-09-21T06:48:01;101231.34;;;11.58;93.08
69772;BME280;57046;45.988;18.664;2022-09-21T06:50:27;101230.41;;;11.76;93.73
69772;BME280;57046;45.988;18.664;2022-09-21T06:52:53;101235.69;;;11.81;92.27
69772;BME280;57046;45.988;18.664;2022-09-21T06:55:18;101246.66;;;11.76;90.98
69772;BME280;57046;45.988;18.664;2022-09-21T06:57:44;101248.56;;;11.76;91.99
69772;BME280;57046;45.988;18.664;2022-09-21T07:00:10;101261.00;;;11.77;91.99
69772;BME280;57046;45.988;18.664;2022-09-21T07:02:36;101249.53;;;11.80;91.95
69772;BME280;57046;45.988;18.664;2022-09-21T07:05:02;101254.88;;;11.71;91.95
69772;BME280;57046;45.988;18.664;2022-09-21T07:07:28;101257.06;;;11.83;91.80
69772;BME280;57046;45.988;18.664;2022-09-21T07:09:53;101259.25;;;11.81;92.14
69772;BME280;57046;45.988;18.664;2022-09-21T07:12:18;101254.09;;;11.93;91.97
69772;BME280;57046;45.988;18.664;2022-09-21T07:14:48;101250.72;;;11.87;89.82
69772;BME280;57046;45.988;18.664;2022-09-21T07:17:14;101258.16;;;12.04;90.58
69772;BME280;57046;45.988;18.664;2022-09-21T07:19:39;101263.88;;;12.02;89.71
69772;BME280;57046;45.988;18.664;2022-09-21T07:22:05;101260.09;;;12.12;90.60
69772;BME280;57046;45.988;18.664;2022-09-21T07:24:30;101263.50;;;12.17;88.54
69772;BME280;57046;45.988;18.664;2022-09-21T07:26:56;101261.47;;;12.32;89.73
69772;BME280;57046;45.988;18.664;2022-09-21T07:29:22;101272.03;;;12.42;88.45
69772;BME280;57046;45.988;18.664;2022-09-21T07:31:47;101275.09;;;12.49;88.41
69772;BME280;57046;45.988;18.664;2022-09-21T07:34:13;101269.19;;;12.38;88.03
69772;BME280;57046;45.988;18.664;2022-09-21T07:36:38;101274.59;;;12.38;87.82
69772;BME280;57046;45.988;18.664;2022-09-21T07:39:03;101281.78;;;12.43;88.51
69772;BME280;57046;45.988;18.664;2022-09-21T07:41:29;101283.06;;;12.45;88.09
69772;BME280;57046;45.988;18.664;2022-09-21T07:43:54;101293.59;;;12.47;89.02
69772;BME280;57046;45.988;18.664;2022-09-21T07:46:20;101289.28;;;12.46;87.79
69772;BME280;57046;45.988;18.664;2022-09-21T07:48:45;101286.09;;;12.44;87.09
69772;BME280;57046;45.988;18.664;2022-09-21T07:51:12;101285.34;;;12.52;87.66
69772;BME280;57046;45.988;18.664;2022-09-21T07:53:40;101282.50;;;12.57;86.81
69772;BME280;57046;45.988;18.664;2022-09-21T07:56:14;101284.56;;;12.60;85.81
69772;BME280;57046;45.988;18.664;2022-09-21T07:58:39;101290.50;;;12.62;86.85
69772;BME280;57046;45.988;18.664;2022-09-21T08:01:05;101282.69;;;12.69;84.96
69772;BME280;57046;45.988;18.664;2022-09-21T08:03:30;101286.72;;;12.80;86.28
69772;BME280;57046;45.988;18.664;2022-09-21T08:05:58;101285.00;;;12.84;84.27
69772;BME280;57046;45.988;18.664;2022-09-21T08:08:23;101292.38;;;12.92;84.85
69772;BME280;57046;45.988;18.664;2022-09-21T08:10:48;101291.44;;;13.05;84.58
69772;BME280;57046;45.988;18.664;2022-09-21T08:13:14;101291.81;;;13.12;83.47
69772;BME280;57046;45.988;18.664;2022-09-21T08:15:39;101292.78;;;13.25;85.04
69772;BME280;57046;45.988;18.664;2022-09-21T08:18:04;101289.75;;;13.27;83.14
69772;BME280;57046;45.988;18.664;2022-09-21T08:20:30;101292.34;;;13.40;84.23
69772;BME280;57046;45.988;18.664;2022-09-21T08:22:55;101299.19;;;13.55;82.95
69772;BME280;57046;45.988;18.664;2022-09-21T08:25:20;101306.06;;;13.44;83.46
69772;BME280;57046;45.988;18.664;2022-09-21T08:27:46;101303.81;;;13.54;81.39
69772;BME280;57046;45.988;18.664;2022-09-21T08:30:11;101300.63;;;13.78;83.78
69772;BME280;57046;45.988;18.664;2022-09-21T08:32:36;101294.53;;;14.07;79.93
69772;BME280;57046;45.988;18.664;2022-09-21T08:35:02;101293.25;;;14.21;79.53
69772;BME280;57046;45.988;18.664;2022-09-21T08:37:27;101289.69;;;14.29;78.53
69772;BME280;57046;45.988;18.664;2022-09-21T08:39:52;101306.66;;;14.44;79.33
69772;BME280;57046;45.988;18.664;2022-09-21T08:44:59;101298.63;;;14.47;79.37
69772;BME280;57046;45.988;18.664;2022-09-21T08:47:28;101307.25;;;14.58;77.45
69772;BME280;57046;45.988;18.664;2022-09-21T08:49:58;101297.31;;;14.62;77.16
69772;BME280;57046;45.988;18.664;2022-09-21T08:52:25;101294.97;;;14.81;76.22
69772;BME280;57046;45.988;18.664;2022-09-21T08:54:57;101298.06;;;14.71;75.44
69772;BME280;57046;45.988;18.664;2022-09-21T08:57:29;101298.25;;;14.66;75.66
69772;BME280;57046;45.988;18.664;2022-09-21T08:59:54;101306.22;;;15.09;75.35
69772;BME280;57046;45.988;18.664;2022-09-21T09:07:50;101298.97;;;15.13;72.49
69772;BME280;57046;45.988;18.664;2022-09-21T09:18:33;101287.09;;;15.38;69.60
69772;BME280;57046;45.988;18.664;2022-09-21T09:24:09;101293.19;;;15.14;71.30
69772;BME280;57046;45.988;18.664;2022-09-21T09:27:00;101287.44;;;15.37;69.29
69772;BME280;57046;45.988;18.664;2022-09-21T09:32:04;101285.13;;;15.26;71.51
69772;BME280;57046;45.988;18.664;2022-09-21T09:34:40;101293.13;;;15.52;68.82
69772;BME280;57046;45.988;18.664;2022-09-21T09:37:11;101288.72;;;15.81;68.53
69772;BME280;57046;45.988;18.664;2022-09-21T09:39:38;101290.78;;;16.16;69.04
69772;BME280;57046;45.988;18.664;2022-09-21T09:42:21;101288.72;;;16.46;69.16
69772;BME280;57046;45.988;18.664;2022-09-21T09:45:01;101284.19;;;16.74;67.46
69772;BME280;57046;45.988;18.664;2022-09-21T09:50:28;101288.50;;;17.12;65.80
69772;BME280;57046;45.988;18.664;2022-09-21T09:53:03;101280.91;;;16.69;65.57
69772;BME280;57046;45.988;18.664;2022-09-21T09:55:35;101288.94;;;16.53;66.46
69772;BME280;57046;45.988;18.664;2022-09-21T09:58:01;101286.22;;;16.08;63.41
69772;BME280;57046;45.988;18.664;2022-09-21T10:00:26;101284.56;;;16.16;67.57
69772;BME280;57046;45.988;18.664;2022-09-21T10:02:56;101280.53;;;16.01;67.25
69772;BME280;57046;45.988;18.664;2022-09-21T10:05:33;101277.44;;;16.36;69.36
69772;BME280;57046;45.988;18.664;2022-09-21T10:07:59;101276.13;;;16.78;63.18
69772;BME280;57046;45.988;18.664;2022-09-21T10:12:53;101264.75;;;17.52;63.59
69772;BME280;57046;45.988;18.664;2022-09-21T10:15:20;101275.34;;;17.54;62.65
69772;BME280;57046;45.988;18.664;2022-09-21T10:17:57;101274.81;;;17.36;61.15
69772;BME280;57046;45.988;18.664;2022-09-21T10:20:25;101267.94;;;16.90;61.53
69772;BME280;57046;45.988;18.664;2022-09-21T10:22:53;101268.84;;;16.58;61.96
69772;BME280;57046;45.988;18.664;2022-09-21T10:25:20;101260.91;;;16.77;62.97
69772;BME280;57046;45.988;18.664;2022-09-21T10:27:48;101263.16;;;16.99;64.03
69772;BME280;57046;45.988;18.664;2022-09-21T10:32:55;101260.69;;;16.25;59.79
69772;BME280;57046;45.988;18.664;2022-09-21T10:35:21;101257.16;;;16.12;61.37
69772;BME280;57046;45.988;18.664;2022-09-21T10:37:47;101254.22;;;16.29;63.62
69772;BME280;57046;45.988;18.664;2022-09-21T10:42:42;101241.59;;;17.22;58.42
69772;BME280;57046;45.988;18.664;2022-09-21T10:45:18;101247.13;;;17.77;61.42
69772;BME280;57046;45.988;18.664;2022-09-21T10:47:47;101234.69;;;18.08;56.66
69772;BME280;57046;45.988;18.664;2022-09-21T10:50:33;101237.53;;;18.43;58.83
69772;BME280;57046;45.988;18.664;2022-09-21T10:53:01;101245.53;;;17.76;56.77
69772;BME280;57046;45.988;18.664;2022-09-21T10:55:42;101246.06;;;17.54;58.61
69772;BME280;57046;45.988;18.664;2022-09-21T10:58:13;101247.09;;;17.10;59.17
69772;BME280;57046;45.988;18.664;2022-09-21T11:00:41;101241.22;;;16.84;58.77
69772;BME280;57046;45.988;18.664;2022-09-21T11:03:34;101247.13;;;16.86;57.51
69772;BME280;57046;45.988;18.664;2022-09-21T11:06:08;101243.91;;;17.60;58.36
69772;BME280;57046;45.988;18.664;2022-09-21T11:19:38;101223.47;;;18.75;56.48
69772;BME280;57046;45.988;18.664;2022-09-21T11:22:17;101210.06;;;19.05;56.01
69772;BME280;57046;45.988;18.664;2022-09-21T11:25:33;101216.94;;;19.15;53.47
69772;BME280;57046;45.988;18.664;2022-09-21T11:27:36;101226.28;;;18.01;52.99
69772;BME280;57046;45.988;18.664;2022-09-21T11:30:15;101234.63;;;17.37;54.19
69772;BME280;57046;45.988;18.664;2022-09-21T11:49:47;101219.09;;;16.40;61.46
69772;BME280;57046;45.988;18.664;2022-09-21T11:58:00;101204.34;;;16.29;62.37
69772;BME280;57046;45.988;18.664;2022-09-21T12:00:41;101200.94;;;16.32;62.64
69772;BME280;57046;45.988;18.664;2022-09-21T12:03:24;101198.88;;;16.41;61.53
69772;BME280;57046;45.988;18.664;2022-09-21T12:13:37;101187.69;;;17.07;56.86
69772;BME280;57046;45.988;18.664;2022-09-21T12:21:44;101174.03;;;18.68;53.46
69772;BME280;57046;45.988;18.664;2022-09-21T12:24:49;101163.47;;;19.05;47.86
69772;BME280;57046;45.988;18.664;2022-09-21T12:30:18;101168.84;;;18.98;47.19
69772;BME280;57046;45.988;18.664;2022-09-21T12:38:21;101173.69;;;18.39;51.72
69772;BME280;57046;45.988;18.664;2022-09-21T12:43:33;101160.69;;;19.59;46.53
69772;BME280;57046;45.988;18.664;2022-09-21T12:46:04;101154.78;;;19.57;46.54
69772;BME280;57046;45.988;18.664;2022-09-21T12:48:38;101155.66;;;20.07;45.75
69772;BME280;57046;45.988;18.664;2022-09-21T12:51:12;101161.75;;;19.16;47.17
69772;BME280;57046;45.988;18.664;2022-09-21T12:53:43;101159.59;;;19.06;47.15
69772;BME280;57046;45.988;18.664;2022-09-21T12:59:07;101159.91;;;18.51;48.33
69772;BME280;57046;45.988;18.664;2022-09-21T13:01:51;101150.06;;;19.19;47.90
69772;BME280;57046;45.988;18.664;2022-09-21T13:04:43;101143.16;;;19.87;47.06
69772;BME280;57046;45.988;18.664;2022-09-21T13:07:27;101146.13;;;20.01;45.43
69772;BME280;57046;45.988;18.664;2022-09-21T13:09:55;101146.38;;;20.15;44.98
69772;BME280;57046;45.988;18.664;2022-09-21T13:12:27;101142.94;;;19.15;45.99
69772;BME280;57046;45.988;18.664;2022-09-21T13:15:01;101136.38;;;19.19;47.81
69772;BME280;57046;45.988;18.664;2022-09-21T13:17:29;101146.53;;;19.00;48.65
69772;BME280;57046;45.988;18.664;2022-09-21T13:20:00;101140.53;;;18.75;50.31
69772;BME280;57046;45.988;18.664;2022-09-21T13:22:30;101144.47;;;18.11;51.73
69772;BME280;57046;45.988;18.664;2022-09-21T13:25:05;101142.09;;;17.51;53.32
69772;BME280;57046;45.988;18.664;2022-09-21T13:32:54;101133.44;;;18.39;48.79
69772;BME280;57046;45.988;18.664;2022-09-21T13:40:59;101126.94;;;19.17;49.44
69772;BME280;57046;45.988;18.664;2022-09-21T13:48:56;101125.81;;;20.28;46.13
69772;BME280;57046;45.988;18.664;2022-09-21T13:51:23;101124.84;;;20.40;48.04
69772;BME280;57046;45.988;18.664;2022-09-21T13:53:53;101116.16;;;20.64;46.45
69772;BME280;57046;45.988;18.664;2022-09-21T13:56:23;101118.25;;;20.74;44.93
69772;BME280;57046;45.988;18.664;2022-09-21T13:58:52;101123.19;;;20.35;45.79
69772;BME280;57046;45.988;18.664;2022-09-21T14:01:37;101121.22;;;19.87;49.09
69772;BME280;57046;45.988;18.664;2022-09-21T14:04:24;101124.72;;;19.42;48.48
69772;BME280;57046;45.988;18.664;2022-09-21T14:06:51;101133.97;;;18.29;47.51
69772;BME280;57046;45.988;18.664;2022-09-21T14:09:31;101131.78;;;18.03;49.49
69772;BME280;57046;45.988;18.664;2022-09-21T14:12:00;101134.94;;;17.74;48.83
69772;BME280;57046;45.988;18.664;2022-09-21T14:14:33;101141.53;;;17.57;49.75
69772;BME280;57046;45.988;18.664;2022-09-21T14:16:59;101140.84;;;17.60;49.05
69772;BME280;57046;45.988;18.664;2022-09-21T14:19:57;101144.66;;;18.18;47.22
69772;BME280;57046;45.988;18.664;2022-09-21T14:24:47;101140.69;;;18.82;45.86
69772;BME280;57046;45.988;18.664;2022-09-21T14:27:33;101139.13;;;18.65;45.64
69772;BME280;57046;45.988;18.664;2022-09-21T14:30:22;101130.00;;;17.64;48.01
69772;BME280;57046;45.988;18.664;2022-09-21T14:33:18;101141.53;;;17.57;49.13
69772;BME280;57046;45.988;18.664;2022-09-21T14:35:45;101146.88;;;17.26;51.21
69772;BME280;57046;45.988;18.664;2022-09-21T14:38:24;101154.84;;;16.91;51.56
69772;BME280;57046;45.988;18.664;2022-09-21T14:40:58;101148.63;;;16.78;52.72
69772;BME280;57046;45.988;18.664;2022-09-21T14:43:31;101149.53;;;16.83;53.67
69772;BME280;57046;45.988;18.664;2022-09-21T14:57:20;101157.03;;;16.37;56.84
69772;BME280;57046;45.988;18.664;2022-09-21T15:02:30;101154.22;;;16.21;56.96
69772;BME280;57046;45.988;18.664;2022-09-21T15:05:21;101157.41;;;16.60;56.41
69772;BME280;57046;45.988;18.664;2022-09-21T15:15:51;101161.22;;;15.98;59.20
69772;BME280;57046;45.988;18.664;2022-09-21T15:18:22;101152.63;;;15.63;61.09
69772;BME280;57046;45.988;18.664;2022-09-21T15:20:59;101156.84;;;15.61;62.38
69772;BME280;57046;45.988;18.664;2022-09-21T15:23:24;101149.13;;;15.42;62.10
69772;BME280;57046;45.988;18.664;2022-09-21T15:28:47;101161.81;;;15.17;63.14
69772;BME280;57046;45.988;18.664;2022-09-21T15:31:13;101156.38;;;15.17;64.27
69772;BME280;57046;45.988;18.664;2022-09-21T15:33:40;101159.31;;;15.12;62.47
69772;BME280;57046;45.988;18.664;2022-09-21T15:36:06;101163.25;;;15.03;62.23
69772;BME280;57046;45.988;18.664;2022-09-21T15:38:33;101162.19;;;14.95;62.35
69772;BME280;57046;45.988;18.664;2022-09-21T15:40:58;101163.66;;;14.93;62.06
69772;BME280;57046;45.988;18.664;2022-09-21T15:43:24;101154.41;;;14.85;63.25